Carlyle, Kansas
Current Conditions -  °F | °C
As of 6:52 PM on Saturday 22 Nov 2014 (Local Time) from KCNU Reporting Station
Overcast Overcast  
Wind Chill: 55°   Ceiling: 1100
Heat Index: 55°   Visibility: 10mi
Dew Point: 52°   Wind: 14mph
Humidity: 89%   Direction: 170°S
Pressure: 29.8"   Gusts: 24mph
Location:  37.9552°N, 95.4332°W
Report Text: KCNU 230052Z AUTO 17012G21KT 10SM OVC011 13/11 A2980 RMK AO2 SLP087 T01280111
Loading
Personal Weather Stations






























Interactive Weather Map New forecast layout! Learn more

10-Day Weather Forecast

Advertisements
Track Severe Weather on mobile